createdAt,value
2022-09-22T00:02:00.171Z,1016.33
2022-09-22T00:03:00.015Z,1016.31
2022-09-22T00:05:03.919Z,1016.31
2022-09-22T00:06:03.871Z,1016.32
2022-09-22T00:08:07.760Z,1016.30
2022-09-22T00:09:07.730Z,1016.31
2022-09-22T00:11:11.631Z,1016.31
2022-09-22T00:12:11.578Z,1016.34
2022-09-22T00:14:15.475Z,1016.35
2022-09-22T00:15:15.439Z,1016.36
2022-09-22T00:17:08.274Z,1016.30
2022-09-22T00:18:08.227Z,1016.31
2022-09-22T00:20:12.126Z,1016.30
2022-09-22T00:21:12.076Z,1016.31
2022-09-22T00:23:15.984Z,1016.35
2022-09-22T00:24:15.931Z,1016.35
2022-09-22T00:26:19.824Z,1016.30
2022-09-22T00:27:19.784Z,1016.30
2022-09-22T00:29:23.689Z,1016.31
2022-09-22T00:30:23.640Z,1016.32
2022-09-22T00:32:27.536Z,1016.32
2022-09-22T00:33:27.495Z,1016.30
2022-09-22T00:35:31.399Z,1016.32
2022-09-22T00:36:31.348Z,1016.34
2022-09-22T00:38:35.282Z,1016.28
2022-09-22T00:39:35.203Z,1016.25
2022-09-22T00:41:39.110Z,1016.26
2022-09-22T00:42:39.057Z,1016.25
2022-09-22T00:44:42.955Z,1016.26
2022-09-22T00:45:42.916Z,1016.20
2022-09-22T00:47:35.750Z,1016.23
2022-09-22T00:48:35.699Z,1016.24
2022-09-22T00:50:39.609Z,1016.29
2022-09-22T00:51:39.557Z,1016.27
2022-09-22T00:53:43.460Z,1016.24
2022-09-22T00:54:43.414Z,1016.27
2022-09-22T00:56:47.315Z,1016.27
2022-09-22T00:57:47.271Z,1016.28
2022-09-22T00:59:51.155Z,1016.26
2022-09-22T01:00:51.243Z,1016.23
2022-09-22T01:02:55.022Z,1016.22
2022-09-22T01:03:54.970Z,1016.23
2022-09-22T01:05:58.862Z,1016.20
2022-09-22T01:06:58.823Z,1016.18
2022-09-22T01:09:02.730Z,1016.15
2022-09-22T01:10:02.677Z,1016.11
2022-09-22T01:12:06.569Z,1016.10
2022-09-22T01:13:06.529Z,1016.09
2022-09-22T01:15:10.430Z,1016.08
2022-09-22T01:16:10.503Z,1016.06
2022-09-22T01:18:14.284Z,1016.05
2022-09-22T01:19:14.240Z,1016.05
2022-09-22T01:20:14.206Z,1016.02
2022-09-22T01:21:14.167Z,1016.01
2022-09-22T01:22:14.135Z,1015.98
2022-09-22T01:23:14.098Z,1015.95
2022-09-22T01:24:14.066Z,1015.97
2022-09-22T01:25:14.028Z,1015.95
2022-09-22T01:26:13.990Z,1015.94
2022-09-22T01:27:13.957Z,1015.93
2022-09-22T01:28:13.922Z,1015.92
2022-09-22T01:29:13.886Z,1015.89
2022-09-22T01:30:13.850Z,1015.89
2022-09-22T01:31:13.867Z,1015.87
2022-09-22T01:32:13.781Z,1015.89
2022-09-22T01:33:13.740Z,1015.91
2022-09-22T01:34:13.708Z,1015.89
2022-09-22T01:35:13.674Z,1015.88
2022-09-22T01:36:13.632Z,1015.89
2022-09-22T01:37:13.595Z,1015.89
2022-09-22T01:38:13.561Z,1015.93
2022-09-22T01:39:13.530Z,1015.88
2022-09-22T01:40:13.508Z,1015.89
2022-09-22T01:41:13.455Z,1015.87
2022-09-22T01:42:13.419Z,1015.84
2022-09-22T01:43:13.381Z,1015.86
2022-09-22T01:44:13.351Z,1015.85
2022-09-22T01:45:13.311Z,1015.81
2022-09-22T01:46:13.323Z,1015.86
2022-09-22T01:47:13.241Z,1015.85
2022-09-22T01:48:13.275Z,1015.82
2022-09-22T01:49:13.171Z,1015.84
2022-09-22T01:50:13.140Z,1015.87
2022-09-22T01:51:13.106Z,1015.85
2022-09-22T01:52:13.063Z,1015.86
2022-09-22T01:53:13.026Z,1015.87
2022-09-22T01:54:12.989Z,1015.84
2022-09-22T01:55:12.954Z,1015.85
2022-09-22T01:56:12.918Z,1015.81
2022-09-22T01:57:12.879Z,1015.83
2022-09-22T01:58:12.847Z,1015.82
2022-09-22T01:59:12.808Z,1015.80
2022-09-22T02:00:12.776Z,1015.81
2022-09-22T02:01:14.766Z,1015.74
2022-09-22T02:02:12.812Z,1015.77
2022-09-22T02:03:12.669Z,1015.76
2022-09-22T02:04:12.631Z,1015.75
2022-09-22T02:05:12.593Z,1015.73
2022-09-22T02:06:12.560Z,1015.73
2022-09-22T02:07:12.525Z,1015.71
2022-09-22T02:08:12.488Z,1015.71
2022-09-22T02:09:12.449Z,1015.69
2022-09-22T02:10:12.413Z,1015.67
2022-09-22T02:11:12.380Z,1015.67
2022-09-22T02:12:12.352Z,1015.67
2022-09-22T02:13:12.309Z,1015.64
2022-09-22T02:14:12.273Z,1015.66
2022-09-22T02:15:12.238Z,1015.64
2022-09-22T02:16:12.289Z,1015.66
2022-09-22T02:17:12.166Z,1015.67
2022-09-22T02:18:12.132Z,1015.63
2022-09-22T02:19:13.669Z,1015.63
2022-09-22T02:20:12.061Z,1015.63
2022-09-22T02:21:12.024Z,1015.64
2022-09-22T02:22:11.988Z,1015.60
2022-09-22T02:23:11.950Z,1015.63
2022-09-22T02:24:11.922Z,1015.59
2022-09-22T02:25:11.882Z,1015.61
2022-09-22T02:26:11.843Z,1015.61
2022-09-22T02:27:11.807Z,1015.62
2022-09-22T02:28:11.773Z,1015.57
2022-09-22T02:29:11.734Z,1015.58
2022-09-22T02:30:11.700Z,1015.55
2022-09-22T02:31:20.150Z,1015.53
2022-09-22T02:32:11.703Z,1015.58
2022-09-22T02:33:11.593Z,1015.62
2022-09-22T02:34:11.559Z,1015.59
2022-09-22T02:35:11.531Z,1015.55
2022-09-22T02:36:11.488Z,1015.57
2022-09-22T02:37:11.450Z,1015.56
2022-09-22T02:38:11.412Z,1015.54
2022-09-22T02:39:11.375Z,1015.59
2022-09-22T02:40:11.356Z,1015.63
2022-09-22T02:41:11.301Z,1015.56
2022-09-22T02:42:11.265Z,1015.54
2022-09-22T02:43:11.231Z,1015.64
2022-09-22T02:44:11.196Z,1015.56
2022-09-22T02:45:11.157Z,1015.52
2022-09-22T02:46:11.169Z,1015.50
2022-09-22T02:47:11.089Z,1015.49
2022-09-22T02:48:11.057Z,1015.46
2022-09-22T02:49:11.016Z,1015.48
2022-09-22T02:50:10.984Z,1015.50
2022-09-22T02:51:10.946Z,1015.50
2022-09-22T02:52:10.912Z,1015.50
2022-09-22T02:53:10.876Z,1015.51
2022-09-22T02:54:10.846Z,1015.49
2022-09-22T02:55:10.803Z,1015.48
2022-09-22T02:56:10.766Z,1015.48
2022-09-22T02:57:10.737Z,1015.48
2022-09-22T02:58:10.694Z,1015.49
2022-09-22T02:59:10.908Z,1015.47
2022-09-22T03:00:10.621Z,1015.44
2022-09-22T03:01:10.621Z,1015.46
2022-09-22T03:02:10.546Z,1015.43
2022-09-22T03:03:10.512Z,1015.43
2022-09-22T03:04:10.474Z,1015.44
2022-09-22T03:05:10.494Z,1015.36
2022-09-22T03:06:10.402Z,1015.35
2022-09-22T03:07:10.370Z,1015.39
2022-09-22T03:08:10.332Z,1015.39
2022-09-22T03:09:10.295Z,1015.40
2022-09-22T03:10:10.266Z,1015.36
2022-09-22T03:11:10.223Z,1015.37
2022-09-22T03:12:10.184Z,1015.38
2022-09-22T03:13:16.410Z,1015.37
2022-09-22T03:14:10.116Z,1015.35
2022-09-22T03:15:10.078Z,1015.37
2022-09-22T03:16:10.105Z,1015.37
2022-09-22T03:17:10.003Z,1015.38
2022-09-22T03:18:09.967Z,1015.35
2022-09-22T03:19:09.932Z,1015.35
2022-09-22T03:20:09.899Z,1015.32
2022-09-22T03:21:09.862Z,1015.34
2022-09-22T03:22:09.829Z,1015.31
2022-09-22T03:23:09.791Z,1015.32
2022-09-22T03:24:09.755Z,1015.32
2022-09-22T03:25:09.718Z,1015.31
2022-09-22T03:26:09.684Z,1015.31
2022-09-22T03:27:09.648Z,1015.29
2022-09-22T03:28:09.616Z,1015.26
2022-09-22T03:29:09.572Z,1015.27
2022-09-22T03:30:09.538Z,1015.25
2022-09-22T03:31:09.562Z,1015.25
2022-09-22T03:32:09.466Z,1015.27
2022-09-22T03:33:09.435Z,1015.26
2022-09-22T03:34:09.400Z,1015.24
2022-09-22T03:35:09.360Z,1015.27
2022-09-22T03:36:09.324Z,1015.26
2022-09-22T03:37:09.285Z,1015.26
2022-09-22T03:38:09.250Z,1015.24
2022-09-22T03:39:09.215Z,1015.24
2022-09-22T03:40:09.220Z,1015.23
2022-09-22T03:41:09.142Z,1015.22
2022-09-22T03:42:09.105Z,1015.21
2022-09-22T03:43:13.035Z,1015.21
2022-09-22T03:44:09.081Z,1015.23
2022-09-22T03:45:08.996Z,1015.18
2022-09-22T03:46:09.028Z,1015.21
2022-09-22T03:47:08.922Z,1015.19
2022-09-22T03:48:08.885Z,1015.23
2022-09-22T03:49:08.850Z,1015.19
2022-09-22T03:50:08.813Z,1015.21
2022-09-22T03:51:08.781Z,1015.18
2022-09-22T03:52:08.743Z,1015.23
2022-09-22T03:53:08.706Z,1015.19
2022-09-22T03:54:08.670Z,1015.23
2022-09-22T03:55:08.631Z,1015.19
2022-09-22T03:56:08.601Z,1015.21
2022-09-22T03:57:08.562Z,1015.19
2022-09-22T03:58:08.528Z,1015.21
2022-09-22T03:59:08.500Z,1015.17
2022-09-22T04:00:08.454Z,1015.17
2022-09-22T04:01:08.456Z,1015.18
2022-09-22T04:02:08.425Z,1015.21
2022-09-22T04:03:08.343Z,1015.19
2022-09-22T04:04:08.309Z,1015.20
2022-09-22T04:05:08.270Z,1015.16
2022-09-22T04:06:08.238Z,1015.18
2022-09-22T04:07:08.196Z,1015.16
2022-09-22T04:08:08.164Z,1015.14
2022-09-22T04:09:08.125Z,1015.15
2022-09-22T04:10:08.091Z,1015.18
2022-09-22T04:11:08.062Z,1015.18
2022-09-22T04:12:08.019Z,1015.14
2022-09-22T04:13:07.989Z,1015.14
2022-09-22T04:14:08.054Z,1015.12
2022-09-22T04:15:07.907Z,1015.06
2022-09-22T04:16:07.874Z,1015.10
2022-09-22T04:17:07.834Z,1015.09
2022-09-22T04:18:07.801Z,1015.07
2022-09-22T04:19:07.763Z,1015.06
2022-09-22T04:20:07.732Z,1015.02
2022-09-22T04:21:07.688Z,1015.03
2022-09-22T04:22:07.656Z,1015.02
2022-09-22T04:23:07.621Z,1015.04
2022-09-22T04:24:07.581Z,1015.05
2022-09-22T04:25:07.547Z,1015.05
2022-09-22T04:26:07.509Z,1015.02
2022-09-22T04:27:21.614Z,1015.04
2022-09-22T04:28:07.438Z,1015.03
2022-09-22T04:29:07.404Z,1015.04
2022-09-22T04:30:07.381Z,1015.06
2022-09-22T04:31:07.398Z,1015.04
2022-09-22T04:32:07.296Z,1015.04
2022-09-22T04:33:07.255Z,1015.05
2022-09-22T04:34:07.762Z,1015.02
2022-09-22T04:35:07.181Z,1015.08
2022-09-22T04:36:07.149Z,1015.08
2022-09-22T04:37:07.111Z,1015.02
2022-09-22T04:38:07.075Z,1015.04
2022-09-22T04:39:07.039Z,1015.05
2022-09-22T04:40:07.026Z,1015.05
2022-09-22T04:41:06.966Z,1015.02
2022-09-22T04:42:06.935Z,1015.01
2022-09-22T04:43:06.894Z,1015.00
2022-09-22T04:44:06.859Z,1015.01
2022-09-22T04:45:06.835Z,1015.01
2022-09-22T04:46:06.834Z,1015.00
2022-09-22T04:47:06.747Z,1015.01
2022-09-22T04:48:06.713Z,1015.00
2022-09-22T04:49:06.685Z,1015.00
2022-09-22T04:50:06.639Z,1014.97
2022-09-22T04:51:06.602Z,1014.98
2022-09-22T04:52:06.571Z,1014.95
2022-09-22T04:53:06.528Z,1014.97
2022-09-22T04:54:06.605Z,1014.96
2022-09-22T04:55:06.459Z,1014.96
2022-09-22T04:56:06.422Z,1014.99
2022-09-22T04:57:06.385Z,1014.96
2022-09-22T04:58:06.348Z,1014.98
2022-09-22T04:59:06.313Z,1014.94
2022-09-22T05:00:06.279Z,1014.99
2022-09-22T05:01:06.277Z,1015.01
2022-09-22T05:02:06.217Z,1015.01
2022-09-22T05:03:06.217Z,1014.98
2022-09-22T05:04:06.138Z,1015.02
2022-09-22T05:05:06.095Z,1015.03
2022-09-22T05:06:06.058Z,1015.07
2022-09-22T05:07:06.028Z,1015.02
2022-09-22T05:08:05.987Z,1015.05
2022-09-22T05:09:06.043Z,1015.04
2022-09-22T05:10:05.914Z,1015.04
2022-09-22T05:11:05.879Z,1015.04
2022-09-22T05:12:05.837Z,1015.00
2022-09-22T05:13:05.807Z,1015.07
2022-09-22T05:14:05.770Z,1015.03
2022-09-22T05:15:05.729Z,1015.04
2022-09-22T05:16:05.729Z,1015.05
2022-09-22T05:17:05.656Z,1015.04
2022-09-22T05:18:05.625Z,1015.05
2022-09-22T05:19:05.584Z,1015.07
2022-09-22T05:20:05.548Z,1015.03
2022-09-22T05:21:05.517Z,1015.04
2022-09-22T05:22:05.473Z,1015.03
2022-09-22T05:23:05.440Z,1015.05
2022-09-22T05:24:05.484Z,1015.04
2022-09-22T05:25:05.363Z,1015.02
2022-09-22T05:26:05.331Z,1015.06
2022-09-22T05:27:12.449Z,1015.08
2022-09-22T05:29:09.243Z,1015.11
2022-09-22T05:30:09.142Z,1015.16
2022-09-22T05:32:13.033Z,1015.12
2022-09-22T05:33:12.997Z,1015.10
2022-09-22T05:35:16.898Z,1015.12
2022-09-22T05:36:16.847Z,1015.12
2022-09-22T05:38:09.682Z,1015.14
2022-09-22T05:39:09.629Z,1015.09
2022-09-22T05:41:13.530Z,1015.12
2022-09-22T05:42:13.480Z,1015.11
2022-09-22T05:44:17.370Z,1015.13
2022-09-22T05:45:17.332Z,1015.13
2022-09-22T05:47:21.260Z,1015.15
2022-09-22T05:48:21.185Z,1015.18
2022-09-22T05:50:25.118Z,1015.18
2022-09-22T05:51:25.038Z,1015.16
2022-09-22T05:53:28.944Z,1015.18
2022-09-22T05:54:28.891Z,1015.14
2022-09-22T05:56:32.807Z,1015.14
2022-09-22T05:57:32.763Z,1015.16
2022-09-22T05:59:36.675Z,1015.18
2022-09-22T06:00:36.630Z,1015.18
2022-09-22T06:02:40.582Z,1015.15
2022-09-22T06:03:40.487Z,1015.19
2022-09-22T06:05:44.388Z,1015.20
2022-09-22T06:06:44.336Z,1015.21
2022-09-22T06:08:57.508Z,1015.19
2022-09-22T06:09:48.187Z,1015.20
2022-09-22T06:11:52.080Z,1015.21
2022-09-22T06:12:52.044Z,1015.21
2022-09-22T06:14:55.953Z,1015.19
2022-09-22T06:15:55.896Z,1015.17
2022-09-22T06:17:48.728Z,1015.17
2022-09-22T06:18:48.684Z,1015.19
2022-09-22T06:20:52.580Z,1015.16
2022-09-22T06:21:52.538Z,1015.16
2022-09-22T06:23:56.487Z,1015.22
2022-09-22T06:24:56.390Z,1015.20
2022-09-22T06:27:00.316Z,1015.18
2022-09-22T06:28:00.254Z,1015.18
2022-09-22T06:30:04.145Z,1015.21
2022-09-22T06:31:04.117Z,1015.21
2022-09-22T06:33:08.005Z,1015.19
2022-09-22T06:34:07.952Z,1015.22
2022-09-22T06:36:11.843Z,1015.22
2022-09-22T06:37:11.801Z,1015.27
2022-09-22T06:39:15.707Z,1015.23
2022-09-22T06:40:17.607Z,1015.25
2022-09-22T06:42:19.560Z,1015.21
2022-09-22T06:43:19.509Z,1015.22
2022-09-22T06:45:23.455Z,1015.25
2022-09-22T06:46:23.362Z,1015.25
2022-09-22T06:48:27.270Z,1015.25
2022-09-22T06:49:27.325Z,1015.26
2022-09-22T06:51:31.116Z,1015.26
2022-09-22T06:52:31.078Z,1015.26
2022-09-22T06:54:34.989Z,1015.28
2022-09-22T06:55:34.930Z,1015.28
2022-09-22T06:57:27.760Z,1015.29
2022-09-22T06:58:27.714Z,1015.27
2022-09-22T07:00:31.720Z,1015.27
2022-09-22T07:01:31.730Z,1015.25
2022-09-22T07:03:35.456Z,1015.29
2022-09-22T07:04:35.420Z,1015.27
2022-09-22T07:06:39.319Z,1015.26
2022-09-22T07:07:39.273Z,1015.26
2022-09-22T07:09:43.177Z,1015.27
2022-09-22T07:10:43.125Z,1015.28
2022-09-22T07:12:47.018Z,1015.27
2022-09-22T07:13:46.985Z,1015.29
2022-09-22T07:15:50.912Z,1015.23
2022-09-22T07:16:50.835Z,1015.27
2022-09-22T07:18:54.735Z,1015.28
2022-09-22T07:19:54.688Z,1015.24
2022-09-22T07:21:58.586Z,1015.25
2022-09-22T07:22:58.539Z,1015.22
2022-09-22T07:25:02.452Z,1015.21
2022-09-22T07:26:02.394Z,1015.22
2022-09-22T07:27:55.224Z,1015.22
2022-09-22T07:28:55.177Z,1015.22
2022-09-22T07:30:59.081Z,1015.21
2022-09-22T07:31:59.061Z,1015.22
2022-09-22T07:34:02.945Z,1015.21
2022-09-22T07:35:02.899Z,1015.22
2022-09-22T07:37:06.784Z,1015.22
2022-09-22T07:38:06.746Z,1015.22
2022-09-22T07:40:10.710Z,1015.19
2022-09-22T07:41:10.595Z,1015.22
2022-09-22T07:43:14.492Z,1015.17
2022-09-22T07:44:14.455Z,1015.20
2022-09-22T07:46:18.416Z,1015.18
2022-09-22T07:47:18.309Z,1015.20
2022-09-22T07:49:22.203Z,1015.19
2022-09-22T07:50:22.221Z,1015.21
2022-09-22T07:52:26.080Z,1015.18
2022-09-22T07:53:26.019Z,1015.20
2022-09-22T07:55:29.909Z,1015.15
2022-09-22T07:56:29.870Z,1015.16
2022-09-22T07:58:33.777Z,1015.16
2022-09-22T07:59:33.733Z,1015.16
2022-09-22T08:01:37.665Z,1015.13
2022-09-22T08:02:37.583Z,1015.18
2022-09-22T08:04:41.495Z,1015.19
2022-09-22T08:05:41.515Z,1015.19
2022-09-22T08:07:34.273Z,1015.21
2022-09-22T08:08:34.234Z,1015.21
2022-09-22T08:10:38.135Z,1015.18
2022-09-22T08:11:38.087Z,1015.15
2022-09-22T08:13:41.982Z,1015.14
2022-09-22T08:14:41.941Z,1015.11
2022-09-22T08:16:45.897Z,1015.13
2022-09-22T08:17:45.798Z,1015.15
2022-09-22T08:19:49.709Z,1015.17
2022-09-22T08:20:49.659Z,1015.15
2022-09-22T08:22:53.575Z,1015.14
2022-09-22T08:23:53.513Z,1015.13
2022-09-22T08:25:57.410Z,1015.16
2022-09-22T08:26:57.374Z,1015.16
2022-09-22T08:29:01.278Z,1015.10
2022-09-22T08:30:01.232Z,1015.13
2022-09-22T08:32:05.137Z,1015.13
2022-09-22T08:33:05.090Z,1015.13
2022-09-22T08:35:08.983Z,1015.18
2022-09-22T08:36:08.950Z,1015.19
2022-09-22T08:38:01.784Z,1015.16
2022-09-22T08:39:01.732Z,1015.15
2022-09-22T08:41:05.667Z,1015.15
2022-09-22T08:42:05.589Z,1015.19
2022-09-22T08:44:09.497Z,1015.20
2022-09-22T08:45:09.468Z,1015.19
2022-09-22T08:47:13.347Z,1015.14
2022-09-22T08:48:13.327Z,1015.13
2022-09-22T08:50:17.227Z,1015.14
2022-09-22T08:51:17.168Z,1015.15
2022-09-22T08:53:21.063Z,1015.15
2022-09-22T08:54:21.026Z,1015.17
2022-09-22T08:56:24.935Z,1015.18
2022-09-22T08:57:24.884Z,1015.13
2022-09-22T08:59:28.781Z,1015.13
2022-09-22T09:00:28.761Z,1015.17
2022-09-22T09:02:32.736Z,1015.15
2022-09-22T09:03:32.604Z,1015.13
2022-09-22T09:05:36.520Z,1015.15
2022-09-22T09:06:36.469Z,1015.19
2022-09-22T09:08:40.361Z,1015.19
2022-09-22T09:09:40.329Z,1015.18
2022-09-22T09:11:44.239Z,1015.20
2022-09-22T09:12:44.185Z,1015.20
2022-09-22T09:14:48.088Z,1015.21
2022-09-22T09:15:48.075Z,1015.19
2022-09-22T09:17:40.884Z,1015.22
2022-09-22T09:18:40.835Z,1015.21
2022-09-22T09:20:44.736Z,1015.11
2022-09-22T09:21:44.705Z,1015.15
2022-09-22T09:26:52.459Z,1015.16
2022-09-22T09:27:52.426Z,1015.14
2022-09-22T09:29:56.332Z,1015.14
2022-09-22T09:30:56.359Z,1015.17
2022-09-22T09:33:00.195Z,1015.12
2022-09-22T09:34:00.154Z,1015.11
2022-09-22T09:36:04.089Z,1015.09
2022-09-22T09:37:04.008Z,1015.10
2022-09-22T09:39:07.905Z,1015.07
2022-09-22T09:40:07.884Z,1015.05
2022-09-22T09:42:11.782Z,1015.05
2022-09-22T09:43:11.765Z,1015.02
2022-09-22T09:45:15.643Z,1014.99
2022-09-22T09:46:15.650Z,1014.96
2022-09-22T09:48:08.422Z,1014.92
2022-09-22T09:49:08.387Z,1014.90
2022-09-22T09:51:12.296Z,1014.88
2022-09-22T09:52:12.258Z,1014.85
2022-09-22T09:54:17.451Z,1014.81
2022-09-22T09:55:16.118Z,1014.82
2022-09-22T09:57:20.028Z,1014.83
2022-09-22T09:58:19.982Z,1014.78
2022-09-22T10:00:23.881Z,1014.81
2022-09-22T10:01:23.925Z,1014.80
2022-09-22T10:03:27.835Z,1014.80
2022-09-22T10:04:27.708Z,1014.74
2022-09-22T10:06:31.611Z,1014.68
2022-09-22T10:09:35.497Z,1014.68
2022-09-22T10:10:35.479Z,1014.69
2022-09-22T10:12:39.351Z,1014.68
2022-09-22T10:13:39.317Z,1014.74
2022-09-22T10:15:43.326Z,1014.70
2022-09-22T10:16:43.184Z,1014.69
2022-09-22T10:18:47.105Z,1014.65
2022-09-22T10:19:47.058Z,1014.67
2022-09-22T10:21:50.955Z,1014.65
2022-09-22T10:22:50.925Z,1014.65
2022-09-22T10:24:54.831Z,1014.64
2022-09-22T10:25:54.790Z,1014.67
2022-09-22T10:27:47.623Z,1014.63
2022-09-22T10:28:47.586Z,1014.65
2022-09-22T10:30:51.529Z,1014.63
2022-09-22T10:31:51.456Z,1014.63
2022-09-22T10:33:55.361Z,1014.64
2022-09-22T10:34:55.329Z,1014.65
2022-09-22T10:36:59.244Z,1014.63
2022-09-22T10:37:59.199Z,1014.61
2022-09-22T10:40:03.155Z,1014.52
2022-09-22T10:41:03.065Z,1014.51
2022-09-22T10:43:06.975Z,1014.46
2022-09-22T10:44:34.636Z,1014.47
2022-09-22T10:46:10.924Z,1014.51
2022-09-22T10:47:10.810Z,1014.50
2022-09-22T10:49:14.718Z,1014.52
2022-09-22T10:50:14.683Z,1014.52
2022-09-22T10:52:18.606Z,1014.53
2022-09-22T10:53:18.583Z,1014.48
2022-09-22T10:55:22.481Z,1014.51
2022-09-22T10:56:22.438Z,1014.50
2022-09-22T10:58:15.272Z,1014.49
2022-09-22T10:59:15.239Z,1014.48
2022-09-22T11:01:19.222Z,1014.44
2022-09-22T11:02:19.117Z,1014.46
2022-09-22T11:04:23.329Z,1014.44
2022-09-22T11:05:22.990Z,1014.42
2022-09-22T11:07:16.436Z,1014.45
2022-09-22T11:08:15.988Z,1014.40
2022-09-22T11:10:19.915Z,1014.40
2022-09-22T11:11:19.872Z,1014.43
2022-09-22T11:13:23.786Z,1014.40
2022-09-22T11:14:23.743Z,1014.36
2022-09-22T11:16:27.666Z,1014.41
2022-09-22T11:17:27.618Z,1014.41
2022-09-22T11:19:31.535Z,1014.42
2022-09-22T11:20:31.503Z,1014.35
2022-09-22T11:22:35.422Z,1014.45
2022-09-22T11:23:35.383Z,1014.43
2022-09-22T11:25:39.291Z,1014.38
2022-09-22T11:26:39.259Z,1014.38
2022-09-22T11:28:32.127Z,1014.37
2022-09-22T11:29:32.089Z,1014.34
2022-09-22T11:31:35.996Z,1014.34
2022-09-22T11:32:35.965Z,1014.29
2022-09-22T11:34:39.888Z,1014.27
2022-09-22T11:35:39.853Z,1014.27
2022-09-22T11:37:43.757Z,1014.24
2022-09-22T11:38:43.724Z,1014.23
2022-09-22T11:40:47.796Z,1014.21
2022-09-22T11:41:47.612Z,1014.16
2022-09-22T11:43:53.504Z,1014.19
2022-09-22T11:44:51.494Z,1014.18
2022-09-22T11:46:55.412Z,1014.16
2022-09-22T11:47:55.379Z,1014.15
2022-09-22T11:49:59.303Z,1014.13
2022-09-22T11:50:59.271Z,1014.07
2022-09-22T11:53:03.181Z,1014.05
2022-09-22T11:54:03.148Z,1014.07
2022-09-22T11:56:07.075Z,1014.06
2022-09-22T11:57:07.033Z,1013.98
2022-09-22T11:59:10.946Z,1014.04
2022-09-22T12:00:10.919Z,1014.02
2022-09-22T12:02:14.915Z,1014.03
2022-09-22T12:03:14.902Z,1014.01
2022-09-22T12:05:18.714Z,1014.03
2022-09-22T12:06:18.689Z,1013.99
2022-09-22T12:08:11.542Z,1014.02
2022-09-22T12:09:11.509Z,1013.99
2022-09-22T12:11:15.415Z,1013.95
2022-09-22T12:12:15.386Z,1013.95
2022-09-22T12:14:19.305Z,1013.86
2022-09-22T12:15:19.270Z,1013.86
2022-09-22T12:17:23.773Z,1013.79
2022-09-22T12:18:23.175Z,1013.77
2022-09-22T12:20:27.083Z,1013.77
2022-09-22T12:21:27.039Z,1013.77
2022-09-22T12:23:30.956Z,1013.74
2022-09-22T12:24:30.932Z,1013.70
2022-09-22T12:25:47.623Z,1013.76
2022-09-22T12:26:30.897Z,1013.72
2022-09-22T12:27:30.863Z,1013.71
2022-09-22T12:28:30.833Z,1013.74
2022-09-22T12:29:30.806Z,1013.72
2022-09-22T12:30:30.818Z,1013.73
2022-09-22T12:31:30.768Z,1013.70
2022-09-22T12:32:30.744Z,1013.67
2022-09-22T12:33:30.706Z,1013.69
2022-09-22T12:34:30.683Z,1013.67
2022-09-22T12:35:31.220Z,1013.64
2022-09-22T12:36:30.634Z,1013.62
2022-09-22T12:37:30.606Z,1013.58
2022-09-22T12:38:30.584Z,1013.55
2022-09-22T12:39:30.555Z,1013.60
2022-09-22T12:40:30.638Z,1013.62
2022-09-22T12:41:30.506Z,1013.60
2022-09-22T12:42:30.483Z,1013.57
2022-09-22T12:43:30.457Z,1013.61
2022-09-22T12:44:30.431Z,1013.63
2022-09-22T12:45:30.409Z,1013.58
2022-09-22T12:46:30.386Z,1013.59
2022-09-22T12:47:30.372Z,1013.53
2022-09-22T12:48:30.334Z,1013.58
2022-09-22T12:49:30.311Z,1013.53
2022-09-22T12:50:30.296Z,1013.54
2022-09-22T12:51:30.264Z,1013.57
2022-09-22T12:52:30.236Z,1013.52
2022-09-22T12:53:30.265Z,1013.52
2022-09-22T12:54:30.193Z,1013.49
2022-09-22T12:55:30.164Z,1013.52
2022-09-22T12:56:30.144Z,1013.55
2022-09-22T12:57:30.128Z,1013.52
2022-09-22T12:58:30.098Z,1013.48
2022-09-22T12:59:30.069Z,1013.47
2022-09-22T13:00:32.901Z,1013.48
2022-09-22T13:01:30.153Z,1013.47
2022-09-22T13:02:29.992Z,1013.46
2022-09-22T13:03:29.980Z,1013.45
2022-09-22T13:04:29.945Z,1013.44
2022-09-22T13:05:29.921Z,1013.47
2022-09-22T13:06:29.899Z,1013.46
2022-09-22T13:07:29.873Z,1013.46
2022-09-22T13:08:29.846Z,1013.50
2022-09-22T13:09:29.828Z,1013.43
2022-09-22T13:10:29.801Z,1013.43
2022-09-22T13:11:29.774Z,1013.44
2022-09-22T13:12:29.754Z,1013.44
2022-09-22T13:13:29.729Z,1013.43
2022-09-22T13:14:29.706Z,1013.45
2022-09-22T13:15:29.681Z,1013.40
2022-09-22T13:16:29.689Z,1013.38
2022-09-22T13:17:29.631Z,1013.38
2022-09-22T13:18:29.618Z,1013.39
2022-09-22T13:19:29.582Z,1013.39
2022-09-22T13:20:29.563Z,1013.37
2022-09-22T13:21:29.536Z,1013.35
2022-09-22T13:22:29.516Z,1013.33
2022-09-22T13:23:29.489Z,1013.36
2022-09-22T13:24:29.467Z,1013.36
2022-09-22T13:25:29.445Z,1013.30
2022-09-22T13:26:29.420Z,1013.31
2022-09-22T13:27:29.392Z,1013.28
2022-09-22T13:28:29.369Z,1013.27
2022-09-22T13:29:29.353Z,1013.26
2022-09-22T13:30:29.475Z,1013.23
2022-09-22T13:31:29.329Z,1013.27
2022-09-22T13:32:29.281Z,1013.25
2022-09-22T13:33:29.248Z,1013.22
2022-09-22T13:34:29.254Z,1013.22
2022-09-22T13:35:29.203Z,1013.22
2022-09-22T13:36:29.179Z,1013.20
2022-09-22T13:37:29.158Z,1013.17
2022-09-22T13:38:29.134Z,1013.16
2022-09-22T13:39:29.108Z,1013.13
2022-09-22T13:40:29.168Z,1013.16
2022-09-22T13:41:29.064Z,1013.07
2022-09-22T13:42:29.064Z,1013.08
2022-09-22T13:43:29.014Z,1013.10
2022-09-22T13:44:28.992Z,1013.06
2022-09-22T13:45:28.967Z,1013.04
2022-09-22T13:46:28.956Z,1013.05
2022-09-22T13:47:28.920Z,1013.02
2022-09-22T13:48:28.900Z,1013.02
2022-09-22T13:49:28.873Z,1013.02
2022-09-22T13:50:28.850Z,1013.00
2022-09-22T13:51:28.825Z,1012.97
2022-09-22T13:52:28.805Z,1013.00
2022-09-22T13:53:28.781Z,1012.98
2022-09-22T13:54:28.754Z,1012.96
2022-09-22T13:55:28.733Z,1012.99
2022-09-22T13:56:28.706Z,1012.98
2022-09-22T13:57:28.692Z,1012.96
2022-09-22T13:58:28.659Z,1012.92
2022-09-22T13:59:28.635Z,1012.89
2022-09-22T14:00:28.615Z,1012.92
2022-09-22T14:01:28.680Z,1012.89
2022-09-22T14:02:31.918Z,1012.89
2022-09-22T14:03:28.541Z,1012.88
2022-09-22T14:04:28.521Z,1012.90
2022-09-22T14:05:28.493Z,1012.90
2022-09-22T14:06:28.470Z,1012.86
2022-09-22T14:07:28.443Z,1012.86
2022-09-22T14:08:28.425Z,1012.82
2022-09-22T14:09:28.393Z,1012.81
2022-09-22T14:10:28.378Z,1012.83
2022-09-22T14:11:28.342Z,1012.81
2022-09-22T14:12:28.324Z,1012.75
2022-09-22T14:13:28.294Z,1012.79
2022-09-22T14:14:28.276Z,1012.76
2022-09-22T14:15:28.248Z,1012.79
2022-09-22T14:16:28.268Z,1012.74
2022-09-22T14:17:28.199Z,1012.75
2022-09-22T14:18:28.176Z,1012.73
2022-09-22T14:19:28.147Z,1012.69
2022-09-22T14:20:28.126Z,1012.64
2022-09-22T14:21:28.097Z,1012.73
2022-09-22T14:22:28.074Z,1012.65
2022-09-22T14:23:28.050Z,1012.68
2022-09-22T14:24:28.031Z,1012.69
2022-09-22T14:25:28.001Z,1012.67
2022-09-22T14:26:27.979Z,1012.67
2022-09-22T14:27:27.951Z,1012.64
2022-09-22T14:28:27.926Z,1012.64
2022-09-22T14:29:27.904Z,1012.68
2022-09-22T14:30:27.878Z,1012.64
2022-09-22T14:31:27.888Z,1012.59
2022-09-22T14:32:27.829Z,1012.60
2022-09-22T14:33:27.807Z,1012.59
2022-09-22T14:34:27.780Z,1012.58
2022-09-22T14:35:27.755Z,1012.54
2022-09-22T14:36:27.728Z,1012.53
2022-09-22T14:37:27.703Z,1012.47
2022-09-22T14:38:27.716Z,1012.52
2022-09-22T14:39:31.454Z,1012.53
2022-09-22T14:40:27.707Z,1012.47
2022-09-22T14:41:27.605Z,1012.48
2022-09-22T14:42:27.581Z,1012.48
2022-09-22T14:43:27.556Z,1012.48
2022-09-22T14:44:27.528Z,1012.47
2022-09-22T14:45:27.610Z,1012.47
2022-09-22T14:46:27.576Z,1012.43
2022-09-22T14:47:27.454Z,1012.44
2022-09-22T14:48:27.430Z,1012.45
2022-09-22T14:49:27.406Z,1012.39
2022-09-22T14:50:27.385Z,1012.39
2022-09-22T14:51:27.355Z,1012.41
2022-09-22T14:52:27.332Z,1012.34
2022-09-22T14:53:27.306Z,1012.35
2022-09-22T14:54:27.284Z,1012.35
2022-09-22T14:55:27.263Z,1012.36
2022-09-22T14:56:27.236Z,1012.31
2022-09-22T14:57:27.208Z,1012.35
2022-09-22T14:58:27.188Z,1012.34
2022-09-22T14:59:27.161Z,1012.31